Aérodrome :
LOGIN :

S'inscrire | Disclaimer

   EN    FR    IT 

 










Légende :    VFR   VFR Marginal   IFR   IFR Intensif   IFR Très Intensif
Visi : 
Plafond : 
>= 8 km
>= 3000ft
5 à 8 km
1000 à 3000 ft
1500m à 5 km
500 à 1000 ft
800 à 1500m
200 à 500 ft
< 800m
< 200 ft
Symboles :   Orages  Brouillard  Fortes neiges  Fortes précipitations  Vent > 20 kt
SIGMETs :   Divers  Orages  Givrage  Turbulence  Onde Orograph.  Cendres Volcan.







- Altitude de l'aérodrome : 913 ft
- Voir les cartes d'approche


LFSX - Luxeuil

DERNIER METAR :
  • 171430Z AUTO 27010KT 250V310 9999 ///CB 26/17 Q1017

METARs EXPIRÉS :
  • 171400Z AUTO 25012KT 9999 FEW038/// BKN110/// ///TCU 25/17 Q1017
  • 171330Z AUTO 26010KT 240V320 9999 SCT038 BKN064 26/17 Q1018
  • 171300Z AUTO 28011KT 230V330 9999 BKN036 BKN044 BKN064 27/17 Q1017 TEMPO 3000 TSRA SCT050CB
  • 171230Z AUTO 28011KT 240V330 9999 BKN036 BKN042 26/17 Q1018 TEMPO 3000 TSRA SCT050CB
  • 171200Z AUTO 27011KT 240V310 9999 SCT036 27/17 Q1017 TEMPO 3000 TSRA SCT050CB

TAF TAF LFSX
Valide du 17 à 09h jusqu'au 18 à 09h UTC


170800Z 1709/1809 30010G20KT CAVOK
PROB40
TEMPO 1712/1718 3000 SHRA
PROB30
TEMPO 1712/1718 3000 TSRA SCT050CB
Pas de NOTAMs connus pour ce terrain.
1 SIGMET publié pour la FIR Reims (LFEE) :
 
Turbulence forte
LFEE SIGMET 3 VALID 171400/171800 LFPW
LFEE REIMS FIR/UIR SEV TURB FCST NW OF LINE N4930 E00615 - N4845 E00515 FL230/340 MOV E 10KT NC=



MET'MAP, la Météo Aéronautique d'un coup d'oeil ! - Copyright ORBIFLY Décembre 2007 - Disclaimer

ORBIFLY MET'MAP TEAM :

Programmation & Développement : Alexandra Zaïnal
Conception & Développement : Baudouin d'Aumeries
Co-Programmation & Développement : Marc-Olivier Méhu
Soutien technique & logistique : Manuel Goepfert

Contact : metmap@orbifly.com




SOURCES & CREDITS :

   NOAA